Terminal Aerodrome Forecast
Issued by NWS Louisville, KY

Home | Current Version | Previous Version | Text Only | Print | Product List | Glossary On
Versions: 1 2 3 4 5 6 7 8 9 10 11 12
000
FTUS43 KLMK 041100
TAFLEX
TAF
KLEX 041133Z 0412/0512 VRB04KT 3SM BR SCT003 BKN007
      TEMPO 0412/0413 2SM BR BKN003
     FM041400 VRB04KT 5SM BR BKN012
     FM041600 36005KT P6SM BKN025
     FM041700 36005KT P6SM BKN040
     FM050900 VRB04KT 5SM BR BKN018=

USA.gov is the U.S. government's official web portal to all federal, state and local government web resources and services.